logo
Search for airport 
image banner adimage banner adimage banner ad
image banner ad

ED0259 - Dillingen

Located in , Germany

ICAO - , IATA -

Data provided by Airmate  

General information

Coordinates: N49°23'12" E6°44'55"
Elevation is 784 feet MSL.
 
View others Airports in Saarland

Operational data

Special qualification required
Current time UTC:
Current local time:
Weather at : EDDR - Saarbruecken ( 32 km )
TAF: TAF EDDR 122300Z 1300/1324 25004KT 9999 FEW005 BKN020 TEMPO 1302/1307 BKN005 TEMPO 1309/1314 26009KT
View NOTAMs / SUP AIP / TFR affecting this airport [VIEW]
Communications frequencies: [VIEW]

Runways:

RWY identifierQFULength (ft)Width (ft)SurfaceLDA (ft)
0550°00OTHER
23230°00OTHER

Airport contact information

Address: Germany

Satellite view of ED0259